Etusivu
METAR-TAF:

METAR-TAF

Lentoasemat :

Chinandega, Nicaragua

Leveyspiiri: 12-38N, Pituuspiiri: 087-08W, korkeus merenpinnasta: 53 m

Tämänhetkinen sää

Tämä raportti tehtiin 43 minuuttia sitten, kello 12.00 UTC
tyyntä
Lämpötila 22°C
Kosteus 88%
Ilmanpaine 1011 hPa
Näkyvyys 10 km tai enemmän
Muutamia pilviä 2500 ft:n korkeudessa
Hajanaisia pilviä 9000 ft:n korkeudessa

METAR: MNCH 241200Z 00000KT 9999 FEW025 SCT090 22/20 Q1011

Aika: 06:43 (12:43 UTC)


TAF: puuttuu

Säähavainnot ja -ennusteet yli 4000 lentoasemalta (METAR- ja TAF-raportit).

Käytössä olevat sääasemat on merkitty karttaan keltaisilla ja punaisilla pisteillä.

Aseta hiiri pisteen päälle nähdäksesi sääaseman nimen.

Klikkaa sitten nähdäksesi säähavainnot ja -ennusteet.

Kartan vaihtaminen: klikkaa mustalla rastilla varustettuja vihreitä pisteitä, niin voit zoomata sisään; viivalla varustettua vihreää pistettä, niin voit zoomata ulos tai vihreitä nuolia, niin pääset viereisille kartoille.


METAR-TAF: